sensor_id;sensor_type;location;lat;lon;timestamp;P1;durP1;ratioP1;P2;durP2;ratioP2
64075;SDS011;50327;51.328;12.324;2023-04-06T00:00:11;15.85;;;5.22;;
64075;SDS011;50327;51.328;12.324;2023-04-06T00:02:37;13.90;;;4.80;;
64075;SDS011;50327;51.328;12.324;2023-04-06T00:05:02;11.27;;;4.38;;
64075;SDS011;50327;51.328;12.324;2023-04-06T00:07:27;8.70;;;4.90;;
64075;SDS011;50327;51.328;12.324;2023-04-06T00:09:54;11.63;;;4.97;;
64075;SDS011;50327;51.328;12.324;2023-04-06T00:12:19;7.55;;;4.07;;
64075;SDS011;50327;51.328;12.324;2023-04-06T00:14:45;8.25;;;4.00;;
64075;SDS011;50327;51.328;12.324;2023-04-06T00:17:10;12.52;;;4.25;;
64075;SDS011;50327;51.328;12.324;2023-04-06T00:19:36;11.68;;;5.25;;
64075;SDS011;50327;51.328;12.324;2023-04-06T00:22:01;17.40;;;6.90;;
64075;SDS011;50327;51.328;12.324;2023-04-06T00:24:27;12.23;;;5.47;;
64075;SDS011;50327;51.328;12.324;2023-04-06T00:26:52;14.27;;;5.82;;
64075;SDS011;50327;51.328;12.324;2023-04-06T00:29:17;17.95;;;6.93;;
64075;SDS011;50327;51.328;12.324;2023-04-06T00:31:43;13.65;;;5.50;;
64075;SDS011;50327;51.328;12.324;2023-04-06T00:34:09;14.07;;;6.00;;
64075;SDS011;50327;51.328;12.324;2023-04-06T00:36:34;13.70;;;5.68;;
64075;SDS011;50327;51.328;12.324;2023-04-06T00:39:00;13.20;;;5.85;;
64075;SDS011;50327;51.328;12.324;2023-04-06T00:41:25;14.73;;;6.78;;
64075;SDS011;50327;51.328;12.324;2023-04-06T00:43:50;15.65;;;7.13;;
64075;SDS011;50327;51.328;12.324;2023-04-06T00:46:15;15.73;;;5.40;;
64075;SDS011;50327;51.328;12.324;2023-04-06T00:48:41;12.00;;;4.30;;
64075;SDS011;50327;51.328;12.324;2023-04-06T00:51:06;13.77;;;5.00;;
64075;SDS011;50327;51.328;12.324;2023-04-06T00:53:31;11.50;;;5.35;;
64075;SDS011;50327;51.328;12.324;2023-04-06T00:55:56;9.02;;;4.53;;
64075;SDS011;50327;51.328;12.324;2023-04-06T00:58:22;9.95;;;4.93;;
64075;SDS011;50327;51.328;12.324;2023-04-06T01:00:47;16.63;;;5.47;;
64075;SDS011;50327;51.328;12.324;2023-04-06T01:03:12;13.65;;;5.53;;
64075;SDS011;50327;51.328;12.324;2023-04-06T01:05:38;12.82;;;4.40;;
64075;SDS011;50327;51.328;12.324;2023-04-06T01:08:05;12.95;;;6.07;;
64075;SDS011;50327;51.328;12.324;2023-04-06T01:10:31;8.60;;;4.50;;
64075;SDS011;50327;51.328;12.324;2023-04-06T01:12:56;11.98;;;4.65;;
64075;SDS011;50327;51.328;12.324;2023-04-06T01:15:21;12.35;;;4.88;;
64075;SDS011;50327;51.328;12.324;2023-04-06T01:17:47;10.00;;;4.30;;
64075;SDS011;50327;51.328;12.324;2023-04-06T01:20:12;8.40;;;4.65;;
64075;SDS011;50327;51.328;12.324;2023-04-06T01:22:38;10.80;;;4.80;;
64075;SDS011;50327;51.328;12.324;2023-04-06T01:25:03;9.35;;;4.10;;
64075;SDS011;50327;51.328;12.324;2023-04-06T01:27:28;12.73;;;5.10;;
64075;SDS011;50327;51.328;12.324;2023-04-06T01:29:54;10.98;;;4.50;;
64075;SDS011;50327;51.328;12.324;2023-04-06T01:32:20;8.65;;;4.40;;
64075;SDS011;50327;51.328;12.324;2023-04-06T01:34:45;12.82;;;4.63;;
64075;SDS011;50327;51.328;12.324;2023-04-06T01:37:11;8.38;;;4.63;;
64075;SDS011;50327;51.328;12.324;2023-04-06T01:39:36;8.57;;;4.72;;
64075;SDS011;50327;51.328;12.324;2023-04-06T01:42:01;12.88;;;4.43;;
64075;SDS011;50327;51.328;12.324;2023-04-06T01:44:26;9.48;;;4.75;;
64075;SDS011;50327;51.328;12.324;2023-04-06T01:46:52;12.95;;;5.25;;
64075;SDS011;50327;51.328;12.324;2023-04-06T01:49:17;9.77;;;5.32;;
64075;SDS011;50327;51.328;12.324;2023-04-06T01:51:42;13.05;;;4.28;;
64075;SDS011;50327;51.328;12.324;2023-04-06T01:54:07;13.13;;;4.72;;
64075;SDS011;50327;51.328;12.324;2023-04-06T01:56:33;12.10;;;4.70;;
64075;SDS011;50327;51.328;12.324;2023-04-06T01:58:58;8.13;;;4.07;;
64075;SDS011;50327;51.328;12.324;2023-04-06T02:01:23;11.52;;;4.68;;
64075;SDS011;50327;51.328;12.324;2023-04-06T02:03:48;8.25;;;4.32;;
64075;SDS011;50327;51.328;12.324;2023-04-06T02:06:14;9.80;;;4.78;;
64075;SDS011;50327;51.328;12.324;2023-04-06T02:08:39;11.10;;;5.28;;
64075;SDS011;50327;51.328;12.324;2023-04-06T02:11:04;16.58;;;5.38;;
64075;SDS011;50327;51.328;12.324;2023-04-06T02:13:30;11.75;;;5.07;;
64075;SDS011;50327;51.328;12.324;2023-04-06T02:15:55;7.95;;;4.45;;
64075;SDS011;50327;51.328;12.324;2023-04-06T02:18:20;8.73;;;4.18;;
64075;SDS011;50327;51.328;12.324;2023-04-06T02:20:46;13.88;;;4.97;;
64075;SDS011;50327;51.328;12.324;2023-04-06T02:23:11;18.00;;;5.03;;
64075;SDS011;50327;51.328;12.324;2023-04-06T02:25:36;10.00;;;4.43;;
64075;SDS011;50327;51.328;12.324;2023-04-06T02:28:02;10.95;;;4.47;;
64075;SDS011;50327;51.328;12.324;2023-04-06T02:30:27;11.80;;;4.70;;
64075;SDS011;50327;51.328;12.324;2023-04-06T02:32:54;9.50;;;4.50;;
64075;SDS011;50327;51.328;12.324;2023-04-06T02:35:19;10.18;;;5.00;;
64075;SDS011;50327;51.328;12.324;2023-04-06T02:37:44;8.35;;;4.25;;
64075;SDS011;50327;51.328;12.324;2023-04-06T02:40:10;10.35;;;4.45;;
64075;SDS011;50327;51.328;12.324;2023-04-06T02:42:35;10.25;;;4.10;;
64075;SDS011;50327;51.328;12.324;2023-04-06T02:45:00;19.35;;;4.78;;
64075;SDS011;50327;51.328;12.324;2023-04-06T02:47:26;11.30;;;4.40;;
64075;SDS011;50327;51.328;12.324;2023-04-06T02:49:51;12.20;;;5.00;;
64075;SDS011;50327;51.328;12.324;2023-04-06T02:52:16;9.75;;;4.43;;
64075;SDS011;50327;51.328;12.324;2023-04-06T02:54:42;9.60;;;4.80;;
64075;SDS011;50327;51.328;12.324;2023-04-06T02:57:08;9.60;;;4.38;;
64075;SDS011;50327;51.328;12.324;2023-04-06T02:59:33;9.85;;;4.60;;
64075;SDS011;50327;51.328;12.324;2023-04-06T03:01:58;7.85;;;3.70;;
64075;SDS011;50327;51.328;12.324;2023-04-06T03:04:23;9.18;;;4.50;;
64075;SDS011;50327;51.328;12.324;2023-04-06T03:06:50;11.73;;;4.82;;
64075;SDS011;50327;51.328;12.324;2023-04-06T03:09:18;9.65;;;4.40;;
64075;SDS011;50327;51.328;12.324;2023-04-06T03:14:10;10.50;;;4.70;;
64075;SDS011;50327;51.328;12.324;2023-04-06T03:16:35;9.05;;;5.15;;
64075;SDS011;50327;51.328;12.324;2023-04-06T03:19:00;13.30;;;4.60;;
64075;SDS011;50327;51.328;12.324;2023-04-06T03:21:25;13.00;;;5.38;;
64075;SDS011;50327;51.328;12.324;2023-04-06T03:23:51;9.35;;;4.68;;
64075;SDS011;50327;51.328;12.324;2023-04-06T03:26:16;13.73;;;5.03;;
64075;SDS011;50327;51.328;12.324;2023-04-06T03:28:41;20.38;;;5.68;;
64075;SDS011;50327;51.328;12.324;2023-04-06T03:31:07;10.18;;;4.60;;
64075;SDS011;50327;51.328;12.324;2023-04-06T03:33:32;11.70;;;4.85;;
64075;SDS011;50327;51.328;12.324;2023-04-06T03:35:57;11.43;;;4.43;;
64075;SDS011;50327;51.328;12.324;2023-04-06T03:38:22;14.05;;;4.75;;
64075;SDS011;50327;51.328;12.324;2023-04-06T03:40:48;11.73;;;5.45;;
64075;SDS011;50327;51.328;12.324;2023-04-06T03:43:13;10.45;;;5.47;;
64075;SDS011;50327;51.328;12.324;2023-04-06T03:45:38;14.25;;;5.05;;
64075;SDS011;50327;51.328;12.324;2023-04-06T03:48:04;8.68;;;4.70;;
64075;SDS011;50327;51.328;12.324;2023-04-06T03:50:30;14.82;;;5.32;;
64075;SDS011;50327;51.328;12.324;2023-04-06T03:52:55;10.40;;;4.70;;
64075;SDS011;50327;51.328;12.324;2023-04-06T03:55:20;11.32;;;5.13;;
64075;SDS011;50327;51.328;12.324;2023-04-06T03:57:46;11.82;;;4.93;;
64075;SDS011;50327;51.328;12.324;2023-04-06T04:00:11;10.25;;;5.05;;
64075;SDS011;50327;51.328;12.324;2023-04-06T04:02:36;14.57;;;5.13;;
64075;SDS011;50327;51.328;12.324;2023-04-06T04:05:02;11.27;;;5.40;;
64075;SDS011;50327;51.328;12.324;2023-04-06T04:07:27;9.93;;;5.45;;
64075;SDS011;50327;51.328;12.324;2023-04-06T04:09:52;13.07;;;5.63;;
64075;SDS011;50327;51.328;12.324;2023-04-06T04:12:18;18.45;;;4.97;;
64075;SDS011;50327;51.328;12.324;2023-04-06T04:14:43;13.50;;;5.57;;
64075;SDS011;50327;51.328;12.324;2023-04-06T04:17:08;14.65;;;6.43;;
64075;SDS011;50327;51.328;12.324;2023-04-06T04:19:34;9.77;;;4.80;;
64075;SDS011;50327;51.328;12.324;2023-04-06T04:21:59;12.77;;;5.10;;
64075;SDS011;50327;51.328;12.324;2023-04-06T04:24:24;12.18;;;5.55;;
64075;SDS011;50327;51.328;12.324;2023-04-06T04:26:49;12.15;;;5.43;;
64075;SDS011;50327;51.328;12.324;2023-04-06T04:29:15;13.15;;;5.75;;
64075;SDS011;50327;51.328;12.324;2023-04-06T04:31:41;12.68;;;5.50;;
64075;SDS011;50327;51.328;12.324;2023-04-06T04:34:06;14.40;;;5.63;;
64075;SDS011;50327;51.328;12.324;2023-04-06T04:36:32;13.27;;;6.57;;
64075;SDS011;50327;51.328;12.324;2023-04-06T04:38:57;12.60;;;6.00;;
64075;SDS011;50327;51.328;12.324;2023-04-06T04:41:22;10.85;;;5.70;;
64075;SDS011;50327;51.328;12.324;2023-04-06T04:43:48;20.90;;;6.55;;
64075;SDS011;50327;51.328;12.324;2023-04-06T04:46:13;17.73;;;6.35;;
64075;SDS011;50327;51.328;12.324;2023-04-06T04:48:38;10.35;;;5.47;;
64075;SDS011;50327;51.328;12.324;2023-04-06T04:51:04;14.52;;;5.78;;
64075;SDS011;50327;51.328;12.324;2023-04-06T04:53:29;14.35;;;5.03;;
64075;SDS011;50327;51.328;12.324;2023-04-06T04:55:55;11.60;;;6.15;;
64075;SDS011;50327;51.328;12.324;2023-04-06T04:58:20;16.15;;;6.32;;
64075;SDS011;50327;51.328;12.324;2023-04-06T05:00:45;24.95;;;6.00;;
64075;SDS011;50327;51.328;12.324;2023-04-06T05:03:17;13.52;;;6.43;;
64075;SDS011;50327;51.328;12.324;2023-04-06T05:05:43;13.88;;;5.60;;
64075;SDS011;50327;51.328;12.324;2023-04-06T05:08:08;10.88;;;6.03;;
64075;SDS011;50327;51.328;12.324;2023-04-06T05:10:34;11.25;;;5.30;;
64075;SDS011;50327;51.328;12.324;2023-04-06T05:12:59;13.00;;;6.40;;
64075;SDS011;50327;51.328;12.324;2023-04-06T05:15:25;12.60;;;6.22;;
64075;SDS011;50327;51.328;12.324;2023-04-06T05:17:50;13.85;;;5.45;;
64075;SDS011;50327;51.328;12.324;2023-04-06T05:20:15;10.98;;;6.25;;
64075;SDS011;50327;51.328;12.324;2023-04-06T05:22:41;16.65;;;7.38;;
64075;SDS011;50327;51.328;12.324;2023-04-06T05:25:06;17.88;;;6.75;;
64075;SDS011;50327;51.328;12.324;2023-04-06T05:27:32;16.92;;;7.38;;
64075;SDS011;50327;51.328;12.324;2023-04-06T05:29:57;15.55;;;7.45;;
64075;SDS011;50327;51.328;12.324;2023-04-06T05:32:23;15.98;;;7.30;;
64075;SDS011;50327;51.328;12.324;2023-04-06T05:34:49;18.35;;;6.80;;
64075;SDS011;50327;51.328;12.324;2023-04-06T05:37:15;18.10;;;7.47;;
64075;SDS011;50327;51.328;12.324;2023-04-06T05:39:40;20.30;;;7.03;;
64075;SDS011;50327;51.328;12.324;2023-04-06T05:42:06;17.27;;;7.45;;
64075;SDS011;50327;51.328;12.324;2023-04-06T05:44:31;27.30;;;7.88;;
64075;SDS011;50327;51.328;12.324;2023-04-06T05:46:56;15.77;;;7.22;;
64075;SDS011;50327;51.328;12.324;2023-04-06T05:49:22;17.38;;;7.32;;
64075;SDS011;50327;51.328;12.324;2023-04-06T05:51:47;18.67;;;6.05;;
64075;SDS011;50327;51.328;12.324;2023-04-06T05:54:12;18.85;;;6.65;;
64075;SDS011;50327;51.328;12.324;2023-04-06T05:56:37;17.85;;;6.07;;
64075;SDS011;50327;51.328;12.324;2023-04-06T05:59:03;12.98;;;5.40;;
64075;SDS011;50327;51.328;12.324;2023-04-06T06:01:28;14.30;;;6.05;;
64075;SDS011;50327;51.328;12.324;2023-04-06T06:03:54;11.23;;;5.68;;
64075;SDS011;50327;51.328;12.324;2023-04-06T06:06:19;12.77;;;5.82;;
64075;SDS011;50327;51.328;12.324;2023-04-06T06:08:44;21.98;;;6.68;;
64075;SDS011;50327;51.328;12.324;2023-04-06T06:11:10;25.60;;;6.35;;
64075;SDS011;50327;51.328;12.324;2023-04-06T06:13:35;12.23;;;5.95;;
64075;SDS011;50327;51.328;12.324;2023-04-06T06:16:00;14.13;;;5.95;;
64075;SDS011;50327;51.328;12.324;2023-04-06T06:20:55;11.55;;;5.32;;
64075;SDS011;50327;51.328;12.324;2023-04-06T06:23:20;13.32;;;5.68;;
64075;SDS011;50327;51.328;12.324;2023-04-06T06:25:46;13.52;;;6.07;;
64075;SDS011;50327;51.328;12.324;2023-04-06T06:28:11;15.85;;;5.38;;
64075;SDS011;50327;51.328;12.324;2023-04-06T06:30:36;17.25;;;5.40;;
64075;SDS011;50327;51.328;12.324;2023-04-06T06:33:01;14.25;;;5.90;;
64075;SDS011;50327;51.328;12.324;2023-04-06T06:35:28;15.13;;;5.78;;
64075;SDS011;50327;51.328;12.324;2023-04-06T06:37:53;17.13;;;5.35;;
64075;SDS011;50327;51.328;12.324;2023-04-06T06:40:18;8.93;;;4.60;;
64075;SDS011;50327;51.328;12.324;2023-04-06T06:42:45;17.67;;;4.60;;
64075;SDS011;50327;51.328;12.324;2023-04-06T06:45:10;14.73;;;6.05;;
64075;SDS011;50327;51.328;12.324;2023-04-06T06:47:35;10.88;;;5.28;;
64075;SDS011;50327;51.328;12.324;2023-04-06T06:50:01;11.05;;;5.30;;
64075;SDS011;50327;51.328;12.324;2023-04-06T06:52:27;15.90;;;5.15;;
64075;SDS011;50327;51.328;12.324;2023-04-06T06:54:53;11.32;;;4.68;;
64075;SDS011;50327;51.328;12.324;2023-04-06T06:57:19;14.45;;;5.82;;
64075;SDS011;50327;51.328;12.324;2023-04-06T06:59:44;21.52;;;5.82;;
64075;SDS011;50327;51.328;12.324;2023-04-06T07:02:09;12.68;;;4.97;;
64075;SDS011;50327;51.328;12.324;2023-04-06T07:04:34;8.32;;;4.35;;
64075;SDS011;50327;51.328;12.324;2023-04-06T07:07:00;13.57;;;5.43;;
64075;SDS011;50327;51.328;12.324;2023-04-06T07:09:26;12.32;;;4.43;;
64075;SDS011;50327;51.328;12.324;2023-04-06T07:11:51;9.02;;;3.83;;
64075;SDS011;50327;51.328;12.324;2023-04-06T07:14:17;12.50;;;4.47;;
64075;SDS011;50327;51.328;12.324;2023-04-06T07:16:42;13.07;;;4.40;;
64075;SDS011;50327;51.328;12.324;2023-04-06T07:19:09;9.65;;;4.50;;
64075;SDS011;50327;51.328;12.324;2023-04-06T07:21:35;8.38;;;4.35;;
64075;SDS011;50327;51.328;12.324;2023-04-06T07:24:01;11.18;;;4.47;;
64075;SDS011;50327;51.328;12.324;2023-04-06T07:26:26;11.30;;;4.38;;
64075;SDS011;50327;51.328;12.324;2023-04-06T07:28:52;9.55;;;4.00;;
64075;SDS011;50327;51.328;12.324;2023-04-06T07:31:17;22.83;;;4.82;;
64075;SDS011;50327;51.328;12.324;2023-04-06T07:33:42;10.57;;;4.97;;
64075;SDS011;50327;51.328;12.324;2023-04-06T07:36:08;8.88;;;4.75;;
64075;SDS011;50327;51.328;12.324;2023-04-06T07:38:33;8.10;;;4.30;;
64075;SDS011;50327;51.328;12.324;2023-04-06T07:40:58;9.98;;;4.03;;
64075;SDS011;50327;51.328;12.324;2023-04-06T07:43:23;9.00;;;3.80;;
64075;SDS011;50327;51.328;12.324;2023-04-06T07:45:49;11.50;;;4.47;;
64075;SDS011;50327;51.328;12.324;2023-04-06T07:48:14;8.93;;;4.05;;
64075;SDS011;50327;51.328;12.324;2023-04-06T07:50:39;11.82;;;4.38;;
64075;SDS011;50327;51.328;12.324;2023-04-06T07:53:05;14.63;;;4.85;;
64075;SDS011;50327;51.328;12.324;2023-04-06T07:55:30;10.63;;;4.82;;
64075;SDS011;50327;51.328;12.324;2023-04-06T07:57:55;9.35;;;4.20;;
64075;SDS011;50327;51.328;12.324;2023-04-06T08:00:21;10.93;;;4.90;;
64075;SDS011;50327;51.328;12.324;2023-04-06T08:02:46;10.55;;;4.50;;
64075;SDS011;50327;51.328;12.324;2023-04-06T08:05:11;11.15;;;5.05;;
64075;SDS011;50327;51.328;12.324;2023-04-06T08:07:37;12.93;;;5.38;;
64075;SDS011;50327;51.328;12.324;2023-04-06T08:10:02;17.63;;;5.03;;
64075;SDS011;50327;51.328;12.324;2023-04-06T08:12:27;9.63;;;5.30;;
64075;SDS011;50327;51.328;12.324;2023-04-06T08:14:53;8.75;;;4.43;;
64075;SDS011;50327;51.328;12.324;2023-04-06T08:17:18;8.90;;;4.53;;
64075;SDS011;50327;51.328;12.324;2023-04-06T08:19:43;9.20;;;4.50;;
64075;SDS011;50327;51.328;12.324;2023-04-06T08:22:09;9.23;;;4.72;;
64075;SDS011;50327;51.328;12.324;2023-04-06T08:24:34;11.68;;;4.18;;
64075;SDS011;50327;51.328;12.324;2023-04-06T08:26:59;10.20;;;4.47;;
64075;SDS011;50327;51.328;12.324;2023-04-06T08:29:25;9.00;;;4.53;;
64075;SDS011;50327;51.328;12.324;2023-04-06T08:31:50;12.57;;;5.15;;
64075;SDS011;50327;51.328;12.324;2023-04-06T08:34:16;8.93;;;4.60;;
64075;SDS011;50327;51.328;12.324;2023-04-06T08:36:41;12.90;;;5.97;;
64075;SDS011;50327;51.328;12.324;2023-04-06T08:39:06;16.58;;;5.57;;
64075;SDS011;50327;51.328;12.324;2023-04-06T08:41:32;10.43;;;5.28;;
64075;SDS011;50327;51.328;12.324;2023-04-06T08:44:01;10.43;;;4.90;;
64075;SDS011;50327;51.328;12.324;2023-04-06T08:48:54;15.70;;;4.23;;
64075;SDS011;50327;51.328;12.324;2023-04-06T08:51:19;16.13;;;5.03;;
64075;SDS011;50327;51.328;12.324;2023-04-06T08:53:45;11.30;;;5.32;;
64075;SDS011;50327;51.328;12.324;2023-04-06T08:56:11;17.67;;;5.28;;
64075;SDS011;50327;51.328;12.324;2023-04-06T08:58:37;8.73;;;4.50;;
64075;SDS011;50327;51.328;12.324;2023-04-06T09:01:06;19.95;;;5.47;;
64075;SDS011;50327;51.328;12.324;2023-04-06T09:03:32;9.15;;;5.13;;
64075;SDS011;50327;51.328;12.324;2023-04-06T09:05:58;9.00;;;4.35;;
64075;SDS011;50327;51.328;12.324;2023-04-06T09:08:24;13.50;;;5.18;;
64075;SDS011;50327;51.328;12.324;2023-04-06T09:10:49;10.93;;;5.07;;
64075;SDS011;50327;51.328;12.324;2023-04-06T09:13:16;10.05;;;4.72;;
64075;SDS011;50327;51.328;12.324;2023-04-06T09:15:42;22.88;;;5.60;;
64075;SDS011;50327;51.328;12.324;2023-04-06T09:18:07;13.18;;;4.75;;
64075;SDS011;50327;51.328;12.324;2023-04-06T09:20:33;25.42;;;5.47;;
64075;SDS011;50327;51.328;12.324;2023-04-06T09:22:58;9.45;;;4.68;;
64075;SDS011;50327;51.328;12.324;2023-04-06T09:25:24;15.95;;;4.80;;
64075;SDS011;50327;51.328;12.324;2023-04-06T09:27:58;9.43;;;4.78;;
64075;SDS011;50327;51.328;12.324;2023-04-06T09:30:24;7.80;;;4.47;;
64075;SDS011;50327;51.328;12.324;2023-04-06T09:32:53;12.32;;;4.70;;
64075;SDS011;50327;51.328;12.324;2023-04-06T09:35:19;9.05;;;4.57;;
64075;SDS011;50327;51.328;12.324;2023-04-06T09:37:48;9.02;;;4.72;;
64075;SDS011;50327;51.328;12.324;2023-04-06T09:40:14;9.05;;;4.53;;
64075;SDS011;50327;51.328;12.324;2023-04-06T09:42:42;9.27;;;4.88;;
64075;SDS011;50327;51.328;12.324;2023-04-06T09:45:08;11.48;;;4.70;;
64075;SDS011;50327;51.328;12.324;2023-04-06T09:47:34;13.27;;;4.63;;
64075;SDS011;50327;51.328;12.324;2023-04-06T09:50:00;13.40;;;5.43;;
64075;SDS011;50327;51.328;12.324;2023-04-06T09:52:33;11.95;;;4.90;;
64075;SDS011;50327;51.328;12.324;2023-04-06T09:55:03;10.75;;;4.78;;
64075;SDS011;50327;51.328;12.324;2023-04-06T09:57:31;10.60;;;4.75;;
64075;SDS011;50327;51.328;12.324;2023-04-06T10:00:00;10.95;;;5.10;;
64075;SDS011;50327;51.328;12.324;2023-04-06T10:02:54;17.27;;;5.18;;
64075;SDS011;50327;51.328;12.324;2023-04-06T10:07:47;6.28;;;3.42;;
64075;SDS011;50327;51.328;12.324;2023-04-06T10:10:13;6.63;;;3.70;;
64075;SDS011;50327;51.328;12.324;2023-04-06T10:12:39;7.82;;;3.88;;
64075;SDS011;50327;51.328;12.324;2023-04-06T10:15:05;11.05;;;4.10;;
64075;SDS011;50327;51.328;12.324;2023-04-06T10:17:31;9.52;;;4.25;;
64075;SDS011;50327;51.328;12.324;2023-04-06T10:20:02;9.00;;;4.32;;
64075;SDS011;50327;51.328;12.324;2023-04-06T10:22:49;9.75;;;4.55;;
64075;SDS011;50327;51.328;12.324;2023-04-06T10:27:42;7.13;;;3.78;;
64075;SDS011;50327;51.328;12.324;2023-04-06T10:30:08;9.57;;;3.92;;
64075;SDS011;50327;51.328;12.324;2023-04-06T10:35:11;9.32;;;4.40;;
64075;SDS011;50327;51.328;12.324;2023-04-06T10:40:34;11.15;;;4.07;;
64075;SDS011;50327;51.328;12.324;2023-04-06T10:43:09;7.72;;;4.05;;
64075;SDS011;50327;51.328;12.324;2023-04-06T10:45:34;9.25;;;3.75;;
64075;SDS011;50327;51.328;12.324;2023-04-06T10:48:00;9.90;;;4.25;;
64075;SDS011;50327;51.328;12.324;2023-04-06T10:50:25;7.63;;;4.15;;
64075;SDS011;50327;51.328;12.324;2023-04-06T10:53:02;8.30;;;4.18;;
64075;SDS011;50327;51.328;12.324;2023-04-06T10:55:28;12.70;;;3.92;;
64075;SDS011;50327;51.328;12.324;2023-04-06T10:57:53;7.75;;;4.10;;
64075;SDS011;50327;51.328;12.324;2023-04-06T11:00:19;8.77;;;4.28;;
64075;SDS011;50327;51.328;12.324;2023-04-06T11:02:44;9.57;;;4.68;;
64075;SDS011;50327;51.328;12.324;2023-04-06T11:05:11;7.32;;;3.92;;
64075;SDS011;50327;51.328;12.324;2023-04-06T11:07:36;9.07;;;4.15;;
64075;SDS011;50327;51.328;12.324;2023-04-06T11:10:01;8.02;;;3.53;;
64075;SDS011;50327;51.328;12.324;2023-04-06T11:12:27;10.65;;;4.13;;
64075;SDS011;50327;51.328;12.324;2023-04-06T11:14:53;8.50;;;4.10;;
64075;SDS011;50327;51.328;12.324;2023-04-06T11:17:25;8.63;;;3.63;;
64075;SDS011;50327;51.328;12.324;2023-04-06T11:19:50;8.88;;;4.35;;
64075;SDS011;50327;51.328;12.324;2023-04-06T11:22:16;10.00;;;4.22;;
64075;SDS011;50327;51.328;12.324;2023-04-06T11:24:41;9.38;;;4.22;;
64075;SDS011;50327;51.328;12.324;2023-04-06T11:27:06;9.40;;;4.38;;
64075;SDS011;50327;51.328;12.324;2023-04-06T11:29:32;8.35;;;4.38;;
64075;SDS011;50327;51.328;12.324;2023-04-06T11:32:00;9.60;;;3.97;;
64075;SDS011;50327;51.328;12.324;2023-04-06T11:34:25;7.22;;;3.65;;
64075;SDS011;50327;51.328;12.324;2023-04-06T11:36:56;7.60;;;4.20;;
64075;SDS011;50327;51.328;12.324;2023-04-06T11:39:22;6.45;;;3.58;;
64075;SDS011;50327;51.328;12.324;2023-04-06T11:41:49;8.82;;;4.28;;
64075;SDS011;50327;51.328;12.324;2023-04-06T11:44:14;10.48;;;4.32;;
64075;SDS011;50327;51.328;12.324;2023-04-06T11:46:40;9.32;;;4.22;;
64075;SDS011;50327;51.328;12.324;2023-04-06T11:49:05;8.13;;;3.83;;
64075;SDS011;50327;51.328;12.324;2023-04-06T11:51:35;10.48;;;4.85;;
64075;SDS011;50327;51.328;12.324;2023-04-06T11:54:00;10.98;;;4.78;;
64075;SDS011;50327;51.328;12.324;2023-04-06T11:56:28;9.30;;;4.15;;
64075;SDS011;50327;51.328;12.324;2023-04-06T12:01:19;11.50;;;4.23;;
64075;SDS011;50327;51.328;12.324;2023-04-06T12:03:45;6.68;;;3.60;;
64075;SDS011;50327;51.328;12.324;2023-04-06T12:06:10;9.85;;;4.10;;
64075;SDS011;50327;51.328;12.324;2023-04-06T12:08:36;10.07;;;3.90;;
64075;SDS011;50327;51.328;12.324;2023-04-06T12:11:01;8.35;;;4.20;;
64075;SDS011;50327;51.328;12.324;2023-04-06T12:13:27;7.82;;;3.80;;
64075;SDS011;50327;51.328;12.324;2023-04-06T12:15:52;10.23;;;4.10;;
64075;SDS011;50327;51.328;12.324;2023-04-06T12:18:17;9.10;;;4.10;;
64075;SDS011;50327;51.328;12.324;2023-04-06T12:20:43;7.72;;;3.90;;
64075;SDS011;50327;51.328;12.324;2023-04-06T12:23:08;10.25;;;4.10;;
64075;SDS011;50327;51.328;12.324;2023-04-06T12:25:33;8.52;;;4.03;;
64075;SDS011;50327;51.328;12.324;2023-04-06T12:27:59;10.25;;;4.00;;
64075;SDS011;50327;51.328;12.324;2023-04-06T12:30:25;7.38;;;3.75;;
64075;SDS011;50327;51.328;12.324;2023-04-06T12:32:50;9.45;;;3.80;;
64075;SDS011;50327;51.328;12.324;2023-04-06T12:35:16;8.25;;;4.00;;
64075;SDS011;50327;51.328;12.324;2023-04-06T12:37:41;8.45;;;3.83;;
64075;SDS011;50327;51.328;12.324;2023-04-06T12:40:07;8.15;;;3.55;;
64075;SDS011;50327;51.328;12.324;2023-04-06T12:42:32;8.48;;;3.63;;
64075;SDS011;50327;51.328;12.324;2023-04-06T12:44:57;7.95;;;3.78;;
64075;SDS011;50327;51.328;12.324;2023-04-06T12:47:23;9.93;;;3.88;;
64075;SDS011;50327;51.328;12.324;2023-04-06T12:49:48;12.52;;;4.43;;
64075;SDS011;50327;51.328;12.324;2023-04-06T12:52:15;9.52;;;3.80;;
64075;SDS011;50327;51.328;12.324;2023-04-06T12:54:41;6.43;;;3.75;;
64075;SDS011;50327;51.328;12.324;2023-04-06T12:57:06;7.75;;;3.97;;
64075;SDS011;50327;51.328;12.324;2023-04-06T12:59:31;11.65;;;4.30;;
64075;SDS011;50327;51.328;12.324;2023-04-06T13:02:00;9.32;;;4.22;;
64075;SDS011;50327;51.328;12.324;2023-04-06T13:04:25;8.02;;;4.07;;
64075;SDS011;50327;51.328;12.324;2023-04-06T13:06:51;17.48;;;4.07;;
64075;SDS011;50327;51.328;12.324;2023-04-06T13:09:16;10.20;;;4.55;;
64075;SDS011;50327;51.328;12.324;2023-04-06T13:11:41;14.90;;;3.78;;
64075;SDS011;50327;51.328;12.324;2023-04-06T13:14:07;6.18;;;3.33;;
64075;SDS011;50327;51.328;12.324;2023-04-06T13:16:32;8.18;;;3.67;;
64075;SDS011;50327;51.328;12.324;2023-04-06T13:18:57;13.82;;;4.20;;
64075;SDS011;50327;51.328;12.324;2023-04-06T13:21:23;11.55;;;4.22;;
64075;SDS011;50327;51.328;12.324;2023-04-06T13:23:48;9.50;;;3.60;;
64075;SDS011;50327;51.328;12.324;2023-04-06T13:26:13;8.82;;;4.03;;
64075;SDS011;50327;51.328;12.324;2023-04-06T13:28:40;6.75;;;3.75;;
64075;SDS011;50327;51.328;12.324;2023-04-06T13:31:05;14.27;;;4.03;;
64075;SDS011;50327;51.328;12.324;2023-04-06T13:33:31;7.80;;;3.80;;
64075;SDS011;50327;51.328;12.324;2023-04-06T13:35:57;9.15;;;4.10;;
64075;SDS011;50327;51.328;12.324;2023-04-06T13:38:22;7.30;;;3.85;;
64075;SDS011;50327;51.328;12.324;2023-04-06T13:40:54;8.93;;;3.95;;
64075;SDS011;50327;51.328;12.324;2023-04-06T13:43:20;12.30;;;5.05;;
64075;SDS011;50327;51.328;12.324;2023-04-06T13:45:49;20.23;;;4.97;;
64075;SDS011;50327;51.328;12.324;2023-04-06T13:48:15;10.18;;;4.05;;
64075;SDS011;50327;51.328;12.324;2023-04-06T13:50:40;12.75;;;3.83;;
64075;SDS011;50327;51.328;12.324;2023-04-06T13:53:05;10.50;;;4.47;;
64075;SDS011;50327;51.328;12.324;2023-04-06T13:55:31;7.15;;;4.13;;
64075;SDS011;50327;51.328;12.324;2023-04-06T13:57:56;7.88;;;3.80;;
64075;SDS011;50327;51.328;12.324;2023-04-06T14:00:21;11.60;;;5.63;;
64075;SDS011;50327;51.328;12.324;2023-04-06T14:02:47;8.48;;;4.30;;
64075;SDS011;50327;51.328;12.324;2023-04-06T14:05:12;11.25;;;4.57;;
64075;SDS011;50327;51.328;12.324;2023-04-06T14:07:37;7.32;;;4.18;;
64075;SDS011;50327;51.328;12.324;2023-04-06T14:10:02;7.53;;;3.72;;
64075;SDS011;50327;51.328;12.324;2023-04-06T14:12:28;11.85;;;4.15;;
64075;SDS011;50327;51.328;12.324;2023-04-06T14:14:53;10.48;;;4.25;;
64075;SDS011;50327;51.328;12.324;2023-04-06T14:17:18;13.55;;;4.63;;
64075;SDS011;50327;51.328;12.324;2023-04-06T14:19:43;10.20;;;4.07;;
64075;SDS011;50327;51.328;12.324;2023-04-06T14:22:09;8.27;;;4.55;;
64075;SDS011;50327;51.328;12.324;2023-04-06T14:24:35;7.63;;;3.97;;
64075;SDS011;50327;51.328;12.324;2023-04-06T14:27:00;9.20;;;4.30;;
64075;SDS011;50327;51.328;12.324;2023-04-06T14:29:26;7.38;;;3.50;;
64075;SDS011;50327;51.328;12.324;2023-04-06T14:31:51;10.73;;;4.50;;
64075;SDS011;50327;51.328;12.324;2023-04-06T14:34:16;8.25;;;3.97;;
64075;SDS011;50327;51.328;12.324;2023-04-06T14:36:42;7.93;;;3.92;;